WZZ4D1 LIRF-LMML
Flight info
| Callsign | WZZ4D1 |
|---|---|
| Flight time | 0h 57m |
| Altitude | 27000 |
| Route | KONUT DCT ROTUN DCT LURON DCT MARON DCT EKOLA L12 GZO |
| Aircraft | A20N/M-V/N |
Departure
| Time | 2026-05-05 15:14 |
|---|---|
| Airport | Rome–Fiumicino Leonardo da Vinci International Airport (LIRF) |
Arrival
| Time | 2026-05-05 16:11 |
|---|---|
| Airport | Malta International Airport (LMML) |
| Time | Latitude | Longitude | Altitude | Speed | Heading |
|---|---|---|---|---|---|
| 2026-05-05 15:10 | 41.80236 | 12.26317 | 14 ft | 0 kts | 207° |
| 2026-05-05 15:11 | 41.80221 | 12.26306 | 14 ft | 8 kts | 207° |
| 2026-05-05 15:12 | 41.80157 | 12.26257 | 15 ft | 11 kts | 231° |
| 2026-05-05 15:12 | 41.80166 | 12.26131 | 16 ft | 23 kts | 298° |
| 2026-05-05 15:12 | 41.80259 | 12.26074 | 16 ft | 12 kts | 25° |
| 2026-05-05 15:12 | 41.80353 | 12.26118 | 16 ft | 15 kts | 27° |
| 2026-05-05 15:13 | 41.80483 | 12.26178 | 16 ft | 21 kts | 354° |
| 2026-05-05 15:13 | 41.80628 | 12.26205 | 16 ft | 20 kts | 349° |
| 2026-05-05 15:13 | 41.80725 | 12.26102 | 17 ft | 18 kts | 262° |
| 2026-05-05 15:13 | 41.80638 | 12.25773 | 16 ft | 73 kts | 249° |
| 2026-05-05 15:14 | 41.80374 | 12.24808 | 10 ft | 144 kts | 248° |
| 2026-05-05 15:14 | 41.79997 | 12.23400 | 390 ft | 167 kts | 248° |
| 2026-05-05 15:14 | 41.79608 | 12.21976 | 1186 ft | 164 kts | 238° |
| 2026-05-05 15:14 | 41.78839 | 12.20951 | 1947 ft | 157 kts | 200° |
| 2026-05-05 15:15 | 41.77773 | 12.20505 | 2444 ft | 170 kts | 194° |
| 2026-05-05 15:15 | 41.76582 | 12.20056 | 2893 ft | 186 kts | 194° |
| 2026-05-05 15:15 | 41.75259 | 12.19551 | 3287 ft | 209 kts | 195° |
| 2026-05-05 15:15 | 41.73805 | 12.18989 | 3813 ft | 228 kts | 196° |
| 2026-05-05 15:16 | 41.72243 | 12.18382 | 4359 ft | 246 kts | 197° |
| 2026-05-05 15:16 | 41.70541 | 12.17717 | 4999 ft | 260 kts | 197° |
| 2026-05-05 15:16 | 41.68807 | 12.17041 | 5876 ft | 265 kts | 198° |
| 2026-05-05 15:16 | 41.67034 | 12.16349 | 6797 ft | 268 kts | 198° |
| 2026-05-05 15:17 | 41.65258 | 12.15654 | 7689 ft | 271 kts | 198° |
| 2026-05-05 15:17 | 41.63457 | 12.14951 | 8568 ft | 275 kts | 199° |
| 2026-05-05 15:17 | 41.61602 | 12.14226 | 9457 ft | 279 kts | 199° |
| 2026-05-05 15:17 | 41.59758 | 12.13506 | 10308 ft | 282 kts | 199° |
| 2026-05-05 15:18 | 41.57817 | 12.12746 | 10905 ft | 296 kts | 200° |
| 2026-05-05 15:18 | 41.55786 | 12.11949 | 11349 ft | 314 kts | 199° |
| 2026-05-05 15:18 | 41.53627 | 12.11105 | 11780 ft | 332 kts | 199° |
| 2026-05-05 15:18 | 41.51371 | 12.10224 | 12143 ft | 350 kts | 199° |
| 2026-05-05 15:19 | 41.48957 | 12.09287 | 12459 ft | 368 kts | 199° |
| 2026-05-05 15:19 | 41.46433 | 12.08307 | 12761 ft | 385 kts | 199° |
| 2026-05-05 15:19 | 41.43842 | 12.07305 | 13198 ft | 396 kts | 199° |
| 2026-05-05 15:19 | 41.41163 | 12.06270 | 13863 ft | 400 kts | 199° |
| 2026-05-05 15:20 | 41.38511 | 12.05247 | 14523 ft | 404 kts | 199° |
| 2026-05-05 15:20 | 41.35801 | 12.04199 | 15167 ft | 407 kts | 199° |
| 2026-05-05 15:20 | 41.33050 | 12.03146 | 15798 ft | 411 kts | 197° |
| 2026-05-05 15:20 | 41.30210 | 12.02564 | 16372 ft | 420 kts | 185° |
| 2026-05-05 15:21 | 41.27310 | 12.02788 | 16964 ft | 428 kts | 174° |
| 2026-05-05 15:21 | 41.24378 | 12.03805 | 17565 ft | 434 kts | 165° |
| 2026-05-05 15:21 | 41.21547 | 12.05065 | 18130 ft | 437 kts | 164° |
| 2026-05-05 15:21 | 41.18634 | 12.06395 | 18672 ft | 441 kts | 164° |
| 2026-05-05 15:22 | 41.15722 | 12.07724 | 19198 ft | 444 kts | 164° |
| 2026-05-05 15:22 | 41.12826 | 12.09039 | 19690 ft | 448 kts | 164° |
| 2026-05-05 15:22 | 41.09871 | 12.10375 | 20170 ft | 452 kts | 164° |
| 2026-05-05 15:22 | 41.06882 | 12.11720 | 20645 ft | 455 kts | 164° |
| 2026-05-05 15:23 | 41.03842 | 12.13084 | 21104 ft | 459 kts | 164° |
| 2026-05-05 15:23 | 41.00826 | 12.14434 | 21563 ft | 462 kts | 165° |
| 2026-05-05 15:23 | 40.97759 | 12.15804 | 22011 ft | 465 kts | 165° |
| 2026-05-05 15:23 | 40.94701 | 12.17170 | 22449 ft | 468 kts | 165° |
| 2026-05-05 15:24 | 40.91619 | 12.18543 | 22859 ft | 471 kts | 165° |
| 2026-05-05 15:24 | 40.88503 | 12.19931 | 23266 ft | 473 kts | 165° |
| 2026-05-05 15:24 | 40.85378 | 12.21320 | 23655 ft | 476 kts | 165° |
| 2026-05-05 15:24 | 40.82235 | 12.22715 | 24020 ft | 479 kts | 165° |
| 2026-05-05 15:25 | 40.79076 | 12.24115 | 24497 ft | 478 kts | 165° |
| 2026-05-05 15:25 | 40.75927 | 12.25512 | 25028 ft | 476 kts | 165° |
| 2026-05-05 15:25 | 40.72815 | 12.26892 | 25516 ft | 476 kts | 165° |
| 2026-05-05 15:25 | 40.69654 | 12.28291 | 25878 ft | 477 kts | 166° |
| 2026-05-05 15:26 | 40.66505 | 12.29681 | 26167 ft | 480 kts | 166° |
| 2026-05-05 15:26 | 40.63338 | 12.31078 | 26497 ft | 482 kts | 166° |
| 2026-05-05 15:26 | 40.60132 | 12.32490 | 26825 ft | 484 kts | 166° |
| 2026-05-05 15:26 | 40.56942 | 12.33894 | 27011 ft | 486 kts | 166° |
| 2026-05-05 15:27 | 40.53723 | 12.35311 | 27015 ft | 486 kts | 166° |
| 2026-05-05 15:27 | 40.50541 | 12.36711 | 27017 ft | 486 kts | 166° |
| 2026-05-05 15:27 | 40.47314 | 12.38127 | 27019 ft | 486 kts | 166° |
| 2026-05-05 15:27 | 40.44137 | 12.39521 | 27019 ft | 486 kts | 166° |
| 2026-05-05 15:28 | 40.40909 | 12.40935 | 27019 ft | 486 kts | 166° |
| 2026-05-05 15:28 | 40.37705 | 12.42339 | 27019 ft | 485 kts | 166° |
| 2026-05-05 15:28 | 40.34514 | 12.43735 | 27020 ft | 486 kts | 166° |
| 2026-05-05 15:28 | 40.31283 | 12.45145 | 27020 ft | 486 kts | 166° |
| 2026-05-05 15:29 | 40.28091 | 12.46539 | 27019 ft | 486 kts | 166° |
| 2026-05-05 15:29 | 40.24913 | 12.47925 | 27018 ft | 486 kts | 166° |
| 2026-05-05 15:29 | 40.21707 | 12.49321 | 27017 ft | 486 kts | 166° |
| 2026-05-05 15:29 | 40.18491 | 12.50722 | 27017 ft | 486 kts | 166° |
| 2026-05-05 15:30 | 40.15260 | 12.52128 | 27018 ft | 486 kts | 166° |
| 2026-05-05 15:30 | 40.12078 | 12.53510 | 27020 ft | 486 kts | 166° |
| 2026-05-05 15:30 | 40.08864 | 12.54905 | 27023 ft | 486 kts | 166° |
| 2026-05-05 15:30 | 40.05659 | 12.56293 | 27021 ft | 487 kts | 166° |
| 2026-05-05 15:31 | 40.02445 | 12.57684 | 27023 ft | 487 kts | 166° |
| 2026-05-05 15:31 | 39.99228 | 12.59076 | 27022 ft | 487 kts | 166° |
| 2026-05-05 15:31 | 39.96013 | 12.60466 | 27022 ft | 487 kts | 166° |
| 2026-05-05 15:31 | 39.92793 | 12.61857 | 27021 ft | 487 kts | 166° |
| 2026-05-05 15:32 | 39.89579 | 12.63242 | 27021 ft | 487 kts | 166° |
| 2026-05-05 15:32 | 39.86346 | 12.64637 | 27021 ft | 486 kts | 166° |
| 2026-05-05 15:32 | 39.83114 | 12.66028 | 27018 ft | 486 kts | 166° |
| 2026-05-05 15:32 | 39.79906 | 12.67407 | 27021 ft | 487 kts | 166° |
| 2026-05-05 15:33 | 39.76712 | 12.68779 | 27021 ft | 487 kts | 166° |
| 2026-05-05 15:33 | 39.73485 | 12.70164 | 27020 ft | 487 kts | 166° |
| 2026-05-05 15:33 | 39.70260 | 12.71547 | 27023 ft | 487 kts | 166° |
| 2026-05-05 15:33 | 39.67076 | 12.72911 | 27021 ft | 488 kts | 166° |
| 2026-05-05 15:34 | 39.63837 | 12.74297 | 27020 ft | 488 kts | 166° |
| 2026-05-05 15:34 | 39.60605 | 12.75680 | 27021 ft | 489 kts | 166° |
| 2026-05-05 15:34 | 39.57377 | 12.77059 | 27020 ft | 489 kts | 166° |
| 2026-05-05 15:34 | 39.54181 | 12.78424 | 27020 ft | 489 kts | 166° |
| 2026-05-05 15:35 | 39.50950 | 12.79802 | 27022 ft | 489 kts | 166° |
| 2026-05-05 15:35 | 39.47712 | 12.81180 | 27021 ft | 488 kts | 166° |
| 2026-05-05 15:35 | 39.44473 | 12.82558 | 27021 ft | 489 kts | 166° |
| 2026-05-05 15:35 | 39.41281 | 12.83915 | 27021 ft | 489 kts | 166° |
| 2026-05-05 15:36 | 39.38042 | 12.85290 | 27020 ft | 489 kts | 166° |
| 2026-05-05 15:36 | 39.34793 | 12.86669 | 27020 ft | 489 kts | 166° |
| 2026-05-05 15:36 | 39.31558 | 12.88040 | 27021 ft | 489 kts | 166° |
| 2026-05-05 15:36 | 39.28355 | 12.89395 | 27020 ft | 490 kts | 166° |
| 2026-05-05 15:37 | 39.25108 | 12.90767 | 27020 ft | 490 kts | 166° |
| 2026-05-05 15:37 | 39.21852 | 12.92144 | 27020 ft | 490 kts | 166° |
| 2026-05-05 15:37 | 39.18613 | 12.93511 | 27020 ft | 491 kts | 166° |
| 2026-05-05 15:37 | 39.15400 | 12.94867 | 27020 ft | 491 kts | 166° |
| 2026-05-05 15:38 | 39.12140 | 12.96240 | 27022 ft | 491 kts | 166° |
| 2026-05-05 15:38 | 39.08884 | 12.97611 | 27020 ft | 491 kts | 166° |
| 2026-05-05 15:38 | 39.05669 | 12.98963 | 27020 ft | 490 kts | 166° |
| 2026-05-05 15:38 | 39.02418 | 13.00329 | 27020 ft | 490 kts | 166° |
| 2026-05-05 15:39 | 38.99168 | 13.01694 | 27019 ft | 491 kts | 166° |
| 2026-05-05 15:39 | 38.95889 | 13.03068 | 27023 ft | 491 kts | 166° |
| 2026-05-05 15:39 | 38.92660 | 13.04421 | 27022 ft | 492 kts | 166° |
| 2026-05-05 15:39 | 38.89410 | 13.05780 | 27020 ft | 496 kts | 166° |
| 2026-05-05 15:40 | 38.86099 | 13.07162 | 27017 ft | 497 kts | 166° |
| 2026-05-05 15:40 | 38.82824 | 13.08530 | 27020 ft | 498 kts | 166° |
| 2026-05-05 15:40 | 38.79551 | 13.09896 | 27020 ft | 498 kts | 166° |
| 2026-05-05 15:40 | 38.76239 | 13.11278 | 27023 ft | 498 kts | 166° |
| 2026-05-05 15:41 | 38.72937 | 13.12653 | 27022 ft | 498 kts | 166° |
| 2026-05-05 15:41 | 38.69671 | 13.14013 | 27023 ft | 498 kts | 166° |
| 2026-05-05 15:41 | 38.66363 | 13.15388 | 27021 ft | 498 kts | 166° |
| 2026-05-05 15:41 | 38.63063 | 13.16759 | 27022 ft | 498 kts | 166° |
| 2026-05-05 15:42 | 38.59785 | 13.18120 | 27021 ft | 498 kts | 166° |
| 2026-05-05 15:42 | 38.56492 | 13.19484 | 27022 ft | 498 kts | 166° |
| 2026-05-05 15:42 | 38.53205 | 13.20845 | 27022 ft | 498 kts | 166° |
| 2026-05-05 15:42 | 38.49913 | 13.22207 | 27023 ft | 498 kts | 166° |
| 2026-05-05 15:43 | 38.46613 | 13.23570 | 27025 ft | 498 kts | 166° |
| 2026-05-05 15:43 | 38.43333 | 13.24925 | 27028 ft | 498 kts | 166° |
| 2026-05-05 15:43 | 38.40042 | 13.26283 | 27026 ft | 498 kts | 166° |
| 2026-05-05 15:43 | 38.36721 | 13.27652 | 27024 ft | 498 kts | 165° |
| 2026-05-05 15:44 | 38.33433 | 13.29005 | 27027 ft | 498 kts | 165° |
| 2026-05-05 15:44 | 38.30124 | 13.30366 | 27026 ft | 498 kts | 165° |
| 2026-05-05 15:44 | 38.26859 | 13.31707 | 27026 ft | 498 kts | 165° |
| 2026-05-05 15:44 | 38.23573 | 13.33055 | 27027 ft | 499 kts | 165° |
| 2026-05-05 15:45 | 38.20266 | 13.34411 | 27033 ft | 499 kts | 165° |
| 2026-05-05 15:45 | 38.16953 | 13.35769 | 27036 ft | 499 kts | 165° |
| 2026-05-05 15:45 | 38.13665 | 13.37115 | 27039 ft | 499 kts | 165° |
| 2026-05-05 15:45 | 38.10343 | 13.38475 | 27043 ft | 499 kts | 165° |
| 2026-05-05 15:46 | 38.07032 | 13.39827 | 27045 ft | 498 kts | 165° |
| 2026-05-05 15:46 | 38.03759 | 13.41163 | 27048 ft | 498 kts | 165° |
| 2026-05-05 15:46 | 38.00473 | 13.42504 | 27052 ft | 498 kts | 165° |
| 2026-05-05 15:46 | 37.97156 | 13.43854 | 27053 ft | 498 kts | 165° |
| 2026-05-05 15:47 | 37.93869 | 13.45193 | 27053 ft | 498 kts | 165° |
| 2026-05-05 15:47 | 37.91650 | 13.46096 | 27054 ft | 498 kts | 165° |
| 2026-05-05 15:47 | 37.87288 | 13.47868 | 27056 ft | 498 kts | 165° |
| 2026-05-05 15:47 | 37.83955 | 13.49221 | 27057 ft | 498 kts | 165° |
| 2026-05-05 15:48 | 37.80696 | 13.50542 | 27060 ft | 498 kts | 165° |
| 2026-05-05 15:48 | 37.77399 | 13.51878 | 27062 ft | 498 kts | 165° |
| 2026-05-05 15:48 | 37.74066 | 13.53227 | 27067 ft | 498 kts | 165° |
| 2026-05-05 15:48 | 37.70767 | 13.54560 | 27067 ft | 498 kts | 165° |
| 2026-05-05 15:49 | 37.67477 | 13.55890 | 27066 ft | 499 kts | 165° |
| 2026-05-05 15:49 | 37.64194 | 13.57215 | 27063 ft | 498 kts | 165° |
| 2026-05-05 15:49 | 37.60890 | 13.58547 | 27061 ft | 498 kts | 165° |
| 2026-05-05 15:49 | 37.57558 | 13.59890 | 27059 ft | 498 kts | 165° |
| 2026-05-05 15:50 | 37.54292 | 13.61204 | 27057 ft | 498 kts | 165° |
| 2026-05-05 15:50 | 37.50982 | 13.62535 | 27053 ft | 498 kts | 165° |
| 2026-05-05 15:50 | 37.47659 | 13.63870 | 27051 ft | 498 kts | 165° |
| 2026-05-05 15:50 | 37.44373 | 13.65189 | 27049 ft | 498 kts | 165° |
| 2026-05-05 15:51 | 37.41048 | 13.66523 | 27048 ft | 498 kts | 165° |
| 2026-05-05 15:51 | 37.37757 | 13.67841 | 27049 ft | 498 kts | 165° |
| 2026-05-05 15:51 | 37.34470 | 13.69157 | 27051 ft | 498 kts | 165° |
| 2026-05-05 15:51 | 37.31151 | 13.70484 | 27050 ft | 498 kts | 165° |
| 2026-05-05 15:52 | 37.27879 | 13.71790 | 27051 ft | 498 kts | 165° |
| 2026-05-05 15:52 | 37.24598 | 13.73100 | 26789 ft | 496 kts | 165° |
| 2026-05-05 15:52 | 37.21324 | 13.74407 | 25981 ft | 491 kts | 165° |
| 2026-05-05 15:52 | 37.18086 | 13.75697 | 24996 ft | 490 kts | 165° |
| 2026-05-05 15:53 | 37.14831 | 13.76992 | 23947 ft | 491 kts | 165° |
| 2026-05-05 15:53 | 37.11613 | 13.78270 | 23071 ft | 487 kts | 165° |
| 2026-05-05 15:53 | 37.08414 | 13.79543 | 22464 ft | 477 kts | 165° |
| 2026-05-05 15:53 | 37.05277 | 13.80792 | 21789 ft | 472 kts | 165° |
| 2026-05-05 15:54 | 37.02181 | 13.82021 | 21071 ft | 467 kts | 165° |
| 2026-05-05 15:54 | 36.99086 | 13.83248 | 20373 ft | 463 kts | 165° |
| 2026-05-05 15:54 | 36.96033 | 13.84458 | 19685 ft | 458 kts | 165° |
| 2026-05-05 15:54 | 36.93024 | 13.85650 | 19010 ft | 454 kts | 165° |
| 2026-05-05 15:55 | 36.90021 | 13.86837 | 18345 ft | 449 kts | 165° |
| 2026-05-05 15:55 | 36.87078 | 13.87999 | 17680 ft | 444 kts | 165° |
| 2026-05-05 15:55 | 36.84140 | 13.89158 | 17016 ft | 440 kts | 165° |
| 2026-05-05 15:55 | 36.81246 | 13.90297 | 16357 ft | 435 kts | 165° |
| 2026-05-05 15:56 | 36.78372 | 13.91428 | 15705 ft | 430 kts | 164° |
| 2026-05-05 15:56 | 36.75522 | 13.92550 | 15052 ft | 426 kts | 164° |
| 2026-05-05 15:56 | 36.72734 | 13.93646 | 14405 ft | 422 kts | 164° |
| 2026-05-05 15:56 | 36.69971 | 13.94733 | 13761 ft | 418 kts | 164° |
| 2026-05-05 15:57 | 36.67197 | 13.95823 | 13108 ft | 414 kts | 164° |
| 2026-05-05 15:57 | 36.64462 | 13.96897 | 12474 ft | 409 kts | 164° |
| 2026-05-05 15:57 | 36.61813 | 13.97937 | 12041 ft | 399 kts | 163° |
| 2026-05-05 15:57 | 36.59195 | 13.98964 | 11703 ft | 386 kts | 163° |
| 2026-05-05 15:58 | 36.56661 | 13.99960 | 11434 ft | 373 kts | 163° |
| 2026-05-05 15:58 | 36.54210 | 14.00919 | 11168 ft | 361 kts | 163° |
| 2026-05-05 15:58 | 36.51839 | 14.01848 | 10925 ft | 349 kts | 163° |
| 2026-05-05 15:58 | 36.49577 | 14.02733 | 10703 ft | 338 kts | 163° |
| 2026-05-05 15:59 | 36.47366 | 14.03597 | 10510 ft | 326 kts | 163° |
| 2026-05-05 15:59 | 36.45244 | 14.04427 | 10334 ft | 315 kts | 163° |
| 2026-05-05 15:59 | 36.43173 | 14.05235 | 10183 ft | 303 kts | 163° |
| 2026-05-05 15:59 | 36.41195 | 14.06007 | 10049 ft | 292 kts | 163° |
| 2026-05-05 16:00 | 36.39254 | 14.06764 | 9694 ft | 291 kts | 163° |
| 2026-05-05 16:00 | 36.37329 | 14.07512 | 9337 ft | 289 kts | 163° |
| 2026-05-05 16:00 | 36.35416 | 14.08256 | 8987 ft | 287 kts | 163° |
| 2026-05-05 16:00 | 36.33517 | 14.08993 | 8641 ft | 285 kts | 163° |
| 2026-05-05 16:01 | 36.31625 | 14.09728 | 8308 ft | 283 kts | 163° |
| 2026-05-05 16:01 | 36.29742 | 14.10460 | 7969 ft | 281 kts | 162° |
| 2026-05-05 16:01 | 36.27889 | 14.11180 | 7637 ft | 279 kts | 162° |
| 2026-05-05 16:01 | 36.26031 | 14.11901 | 7304 ft | 277 kts | 162° |
| 2026-05-05 16:02 | 36.24206 | 14.12611 | 6978 ft | 275 kts | 162° |
| 2026-05-05 16:02 | 36.22383 | 14.13336 | 6640 ft | 273 kts | 158° |
| 2026-05-05 16:02 | 36.20692 | 14.14378 | 6237 ft | 273 kts | 149° |
| 2026-05-05 16:02 | 36.19060 | 14.15601 | 5777 ft | 276 kts | 147° |
| 2026-05-05 16:03 | 36.17427 | 14.16835 | 5357 ft | 276 kts | 148° |
| 2026-05-05 16:03 | 36.15776 | 14.18056 | 4981 ft | 274 kts | 149° |
| 2026-05-05 16:03 | 36.14142 | 14.19241 | 4633 ft | 271 kts | 149° |
| 2026-05-05 16:03 | 36.12537 | 14.20390 | 4303 ft | 268 kts | 149° |
| 2026-05-05 16:04 | 36.10915 | 14.21543 | 3969 ft | 265 kts | 149° |
| 2026-05-05 16:04 | 36.09330 | 14.22665 | 3644 ft | 262 kts | 149° |
| 2026-05-05 16:04 | 36.07755 | 14.23778 | 3320 ft | 259 kts | 149° |
| 2026-05-05 16:04 | 36.06197 | 14.24877 | 3030 ft | 255 kts | 149° |
| 2026-05-05 16:05 | 36.04669 | 14.25924 | 2962 ft | 241 kts | 152° |
| 2026-05-05 16:05 | 36.03215 | 14.26807 | 2960 ft | 225 kts | 151° |
| 2026-05-05 16:05 | 36.01938 | 14.27810 | 2951 ft | 210 kts | 141° |
| 2026-05-05 16:05 | 36.00879 | 14.28952 | 2947 ft | 196 kts | 135° |
| 2026-05-05 16:06 | 35.99921 | 14.30155 | 2967 ft | 195 kts | 134° |
| 2026-05-05 16:06 | 35.98988 | 14.31350 | 2977 ft | 195 kts | 134° |
| 2026-05-05 16:06 | 35.98035 | 14.32556 | 2975 ft | 195 kts | 134° |
| 2026-05-05 16:06 | 35.97081 | 14.33746 | 2967 ft | 195 kts | 135° |
| 2026-05-05 16:07 | 35.96114 | 14.34942 | 2960 ft | 195 kts | 135° |
| 2026-05-05 16:07 | 35.95163 | 14.36116 | 2862 ft | 188 kts | 135° |
| 2026-05-05 16:07 | 35.94248 | 14.37243 | 2617 ft | 183 kts | 135° |
| 2026-05-05 16:07 | 35.93362 | 14.38335 | 2354 ft | 178 kts | 135° |
| 2026-05-05 16:08 | 35.92482 | 14.39422 | 2139 ft | 179 kts | 135° |
| 2026-05-05 16:08 | 35.91608 | 14.40502 | 1892 ft | 177 kts | 135° |
| 2026-05-05 16:08 | 35.90760 | 14.41550 | 1654 ft | 164 kts | 134° |
| 2026-05-05 16:08 | 35.90000 | 14.42490 | 1435 ft | 148 kts | 134° |
| 2026-05-05 16:09 | 35.89307 | 14.43347 | 1236 ft | 133 kts | 134° |
| 2026-05-05 16:09 | 35.88673 | 14.44117 | 1027 ft | 124 kts | 135° |
| 2026-05-05 16:09 | 35.88063 | 14.44867 | 898 ft | 124 kts | 134° |
| 2026-05-05 16:09 | 35.87462 | 14.45628 | 789 ft | 124 kts | 134° |
| 2026-05-05 16:10 | 35.86859 | 14.46377 | 633 ft | 122 kts | 133° |
| 2026-05-05 16:10 | 35.86255 | 14.47133 | 459 ft | 121 kts | 134° |
| 2026-05-05 16:10 | 35.85660 | 14.47857 | 321 ft | 121 kts | 134° |
| 2026-05-05 16:10 | 35.85088 | 14.48569 | 261 ft | 104 kts | 136° |
| 2026-05-05 16:11 | 35.84690 | 14.49062 | 256 ft | 56 kts | 135° |
| 2026-05-05 16:11 | 35.84491 | 14.49576 | 246 ft | 17 kts | 350° |
| 2026-05-05 16:12 | 35.84601 | 14.49547 | 245 ft | 17 kts | 40° |
| 2026-05-05 16:12 | 35.84737 | 14.49482 | 245 ft | 7 kts | 233° |